sensor_id;sensor_type;location;lat;lon;timestamp;P1;durP1;ratioP1;P2;durP2;ratioP2
18302;SDS011;9277;37.980;23.748;2023-06-26T00:01:42;6.45;;;3.75;;
18302;SDS011;9277;37.980;23.748;2023-06-26T00:04:08;10.52;;;4.00;;
18302;SDS011;9277;37.980;23.748;2023-06-26T00:06:39;6.72;;;3.92;;
18302;SDS011;9277;37.980;23.748;2023-06-26T00:09:06;12.45;;;3.95;;
18302;SDS011;9277;37.980;23.748;2023-06-26T00:11:33;6.18;;;3.70;;
18302;SDS011;9277;37.980;23.748;2023-06-26T00:14:00;5.60;;;3.53;;
18302;SDS011;9277;37.980;23.748;2023-06-26T00:16:29;6.88;;;3.63;;
18302;SDS011;9277;37.980;23.748;2023-06-26T00:18:56;7.32;;;3.60;;
18302;SDS011;9277;37.980;23.748;2023-06-26T00:21:23;7.78;;;3.40;;
18302;SDS011;9277;37.980;23.748;2023-06-26T00:23:50;5.68;;;3.78;;
18302;SDS011;9277;37.980;23.748;2023-06-26T00:26:17;7.30;;;3.85;;
18302;SDS011;9277;37.980;23.748;2023-06-26T00:28:44;6.30;;;3.80;;
18302;SDS011;9277;37.980;23.748;2023-06-26T00:31:11;7.00;;;3.83;;
18302;SDS011;9277;37.980;23.748;2023-06-26T00:33:39;6.13;;;3.40;;
18302;SDS011;9277;37.980;23.748;2023-06-26T00:36:06;6.68;;;3.38;;
18302;SDS011;9277;37.980;23.748;2023-06-26T00:38:33;9.73;;;3.97;;
18302;SDS011;9277;37.980;23.748;2023-06-26T00:41:00;5.75;;;3.78;;
18302;SDS011;9277;37.980;23.748;2023-06-26T00:43:26;8.88;;;3.83;;
18302;SDS011;9277;37.980;23.748;2023-06-26T00:45:53;8.15;;;4.13;;
18302;SDS011;9277;37.980;23.748;2023-06-26T00:48:20;15.20;;;3.92;;
18302;SDS011;9277;37.980;23.748;2023-06-26T00:50:49;12.98;;;3.92;;
18302;SDS011;9277;37.980;23.748;2023-06-26T00:53:15;6.28;;;3.78;;
18302;SDS011;9277;37.980;23.748;2023-06-26T00:55:42;10.93;;;4.50;;
18302;SDS011;9277;37.980;23.748;2023-06-26T00:58:09;7.85;;;4.28;;
18302;SDS011;9277;37.980;23.748;2023-06-26T01:00:36;13.45;;;5.10;;
18302;SDS011;9277;37.980;23.748;2023-06-26T01:03:02;11.30;;;4.65;;
18302;SDS011;9277;37.980;23.748;2023-06-26T01:05:29;13.73;;;5.30;;
18302;SDS011;9277;37.980;23.748;2023-06-26T01:07:58;9.00;;;4.03;;
18302;SDS011;9277;37.980;23.748;2023-06-26T01:10:25;10.18;;;4.32;;
18302;SDS011;9277;37.980;23.748;2023-06-26T01:12:54;9.88;;;4.05;;
18302;SDS011;9277;37.980;23.748;2023-06-26T01:15:21;8.10;;;4.30;;
18302;SDS011;9277;37.980;23.748;2023-06-26T01:17:47;10.38;;;4.32;;
18302;SDS011;9277;37.980;23.748;2023-06-26T01:20:14;6.55;;;4.45;;
18302;SDS011;9277;37.980;23.748;2023-06-26T01:22:45;10.63;;;4.40;;
18302;SDS011;9277;37.980;23.748;2023-06-26T01:25:17;7.60;;;3.95;;
18302;SDS011;9277;37.980;23.748;2023-06-26T01:27:49;8.02;;;4.00;;
18302;SDS011;9277;37.980;23.748;2023-06-26T01:30:16;11.70;;;4.13;;
18302;SDS011;9277;37.980;23.748;2023-06-26T01:32:44;6.70;;;3.80;;
18302;SDS011;9277;37.980;23.748;2023-06-26T01:35:11;9.10;;;4.35;;
18302;SDS011;9277;37.980;23.748;2023-06-26T01:37:38;7.43;;;4.00;;
18302;SDS011;9277;37.980;23.748;2023-06-26T01:40:05;11.35;;;4.82;;
18302;SDS011;9277;37.980;23.748;2023-06-26T01:42:32;6.60;;;4.22;;
18302;SDS011;9277;37.980;23.748;2023-06-26T01:45:00;7.32;;;4.30;;
18302;SDS011;9277;37.980;23.748;2023-06-26T01:47:28;9.70;;;4.32;;
18302;SDS011;9277;37.980;23.748;2023-06-26T01:49:59;8.32;;;4.82;;
18302;SDS011;9277;37.980;23.748;2023-06-26T01:52:28;10.63;;;4.32;;
18302;SDS011;9277;37.980;23.748;2023-06-26T01:55:02;10.80;;;4.32;;
18302;SDS011;9277;37.980;23.748;2023-06-26T01:57:29;9.00;;;4.05;;
18302;SDS011;9277;37.980;23.748;2023-06-26T01:59:56;9.30;;;4.40;;
18302;SDS011;9277;37.980;23.748;2023-06-26T02:02:27;14.25;;;4.93;;
18302;SDS011;9277;37.980;23.748;2023-06-26T02:04:54;9.93;;;4.07;;
18302;SDS011;9277;37.980;23.748;2023-06-26T02:07:21;6.82;;;4.13;;
18302;SDS011;9277;37.980;23.748;2023-06-26T02:09:48;9.20;;;4.72;;
18302;SDS011;9277;37.980;23.748;2023-06-26T02:12:15;8.55;;;3.90;;
18302;SDS011;9277;37.980;23.748;2023-06-26T02:14:41;5.93;;;4.22;;
18302;SDS011;9277;37.980;23.748;2023-06-26T02:17:08;8.90;;;4.20;;
18302;SDS011;9277;37.980;23.748;2023-06-26T02:19:36;9.52;;;5.30;;
18302;SDS011;9277;37.980;23.748;2023-06-26T02:22:10;7.72;;;4.55;;
18302;SDS011;9277;37.980;23.748;2023-06-26T02:24:37;10.05;;;4.75;;
18302;SDS011;9277;37.980;23.748;2023-06-26T02:27:04;14.10;;;5.18;;
18302;SDS011;9277;37.980;23.748;2023-06-26T02:29:30;7.25;;;4.43;;
18302;SDS011;9277;37.980;23.748;2023-06-26T02:31:57;8.70;;;4.15;;
18302;SDS011;9277;37.980;23.748;2023-06-26T02:34:24;12.85;;;4.82;;
18302;SDS011;9277;37.980;23.748;2023-06-26T02:36:52;9.45;;;4.30;;
18302;SDS011;9277;37.980;23.748;2023-06-26T02:39:20;9.55;;;4.28;;
18302;SDS011;9277;37.980;23.748;2023-06-26T02:41:47;12.93;;;5.07;;
18302;SDS011;9277;37.980;23.748;2023-06-26T02:44:14;18.85;;;5.10;;
18302;SDS011;9277;37.980;23.748;2023-06-26T02:46:41;7.75;;;4.18;;
18302;SDS011;9277;37.980;23.748;2023-06-26T02:49:07;15.48;;;4.55;;
18302;SDS011;9277;37.980;23.748;2023-06-26T02:51:34;8.82;;;4.22;;
18302;SDS011;9277;37.980;23.748;2023-06-26T02:54:03;13.52;;;4.50;;
18302;SDS011;9277;37.980;23.748;2023-06-26T02:56:29;10.90;;;3.80;;
18302;SDS011;9277;37.980;23.748;2023-06-26T02:58:57;12.82;;;4.80;;
18302;SDS011;9277;37.980;23.748;2023-06-26T03:01:23;8.75;;;3.90;;
18302;SDS011;9277;37.980;23.748;2023-06-26T03:03:50;6.55;;;4.25;;
18302;SDS011;9277;37.980;23.748;2023-06-26T03:06:17;10.63;;;4.57;;
18302;SDS011;9277;37.980;23.748;2023-06-26T03:08:44;11.52;;;4.43;;
18302;SDS011;9277;37.980;23.748;2023-06-26T03:11:13;9.02;;;4.50;;
18302;SDS011;9277;37.980;23.748;2023-06-26T03:13:39;9.23;;;4.18;;
18302;SDS011;9277;37.980;23.748;2023-06-26T03:16:06;9.35;;;4.22;;
18302;SDS011;9277;37.980;23.748;2023-06-26T03:18:33;15.23;;;4.32;;
18302;SDS011;9277;37.980;23.748;2023-06-26T03:21:00;8.27;;;4.03;;
18302;SDS011;9277;37.980;23.748;2023-06-26T03:23:27;9.32;;;4.25;;
18302;SDS011;9277;37.980;23.748;2023-06-26T03:25:53;9.45;;;4.95;;
18302;SDS011;9277;37.980;23.748;2023-06-26T03:28:22;12.73;;;4.38;;
18302;SDS011;9277;37.980;23.748;2023-06-26T03:30:48;10.25;;;4.57;;
18302;SDS011;9277;37.980;23.748;2023-06-26T03:33:15;10.23;;;4.63;;
18302;SDS011;9277;37.980;23.748;2023-06-26T03:35:42;12.27;;;4.63;;
18302;SDS011;9277;37.980;23.748;2023-06-26T03:38:09;10.75;;;4.40;;
18302;SDS011;9277;37.980;23.748;2023-06-26T03:40:36;11.38;;;4.57;;
18302;SDS011;9277;37.980;23.748;2023-06-26T03:43:03;10.55;;;4.53;;
18302;SDS011;9277;37.980;23.748;2023-06-26T03:45:31;11.20;;;4.35;;
18302;SDS011;9277;37.980;23.748;2023-06-26T03:47:57;12.88;;;4.35;;
18302;SDS011;9277;37.980;23.748;2023-06-26T03:50:24;9.25;;;4.70;;
18302;SDS011;9277;37.980;23.748;2023-06-26T03:52:51;9.93;;;4.43;;
18302;SDS011;9277;37.980;23.748;2023-06-26T03:55:19;10.88;;;4.35;;
18302;SDS011;9277;37.980;23.748;2023-06-26T03:57:47;7.20;;;4.35;;
18302;SDS011;9277;37.980;23.748;2023-06-26T04:00:14;13.10;;;5.07;;
18302;SDS011;9277;37.980;23.748;2023-06-26T04:02:43;6.20;;;4.53;;
18302;SDS011;9277;37.980;23.748;2023-06-26T04:05:10;8.38;;;4.28;;
18302;SDS011;9277;37.980;23.748;2023-06-26T04:07:37;9.93;;;4.55;;
18302;SDS011;9277;37.980;23.748;2023-06-26T04:10:04;11.48;;;4.63;;
18302;SDS011;9277;37.980;23.748;2023-06-26T04:12:31;12.18;;;5.45;;
18302;SDS011;9277;37.980;23.748;2023-06-26T04:14:58;9.30;;;4.68;;
18302;SDS011;9277;37.980;23.748;2023-06-26T04:17:24;11.25;;;4.78;;
18302;SDS011;9277;37.980;23.748;2023-06-26T04:19:53;7.25;;;4.55;;
18302;SDS011;9277;37.980;23.748;2023-06-26T04:22:19;7.25;;;4.70;;
18302;SDS011;9277;37.980;23.748;2023-06-26T04:24:46;13.43;;;4.57;;
18302;SDS011;9277;37.980;23.748;2023-06-26T04:27:13;11.25;;;5.07;;
18302;SDS011;9277;37.980;23.748;2023-06-26T04:29:40;9.25;;;4.10;;
18302;SDS011;9277;37.980;23.748;2023-06-26T04:32:07;14.27;;;4.53;;
18302;SDS011;9277;37.980;23.748;2023-06-26T04:34:34;10.95;;;5.00;;
18302;SDS011;9277;37.980;23.748;2023-06-26T04:37:03;11.35;;;4.47;;
18302;SDS011;9277;37.980;23.748;2023-06-26T04:39:30;11.13;;;4.75;;
18302;SDS011;9277;37.980;23.748;2023-06-26T04:41:57;9.95;;;4.25;;
18302;SDS011;9277;37.980;23.748;2023-06-26T04:44:24;19.98;;;4.88;;
18302;SDS011;9277;37.980;23.748;2023-06-26T04:46:50;8.50;;;4.55;;
18302;SDS011;9277;37.980;23.748;2023-06-26T04:49:18;9.63;;;4.43;;
18302;SDS011;9277;37.980;23.748;2023-06-26T04:51:45;8.43;;;3.88;;
18302;SDS011;9277;37.980;23.748;2023-06-26T04:54:15;9.93;;;3.72;;
18302;SDS011;9277;37.980;23.748;2023-06-26T04:56:41;8.48;;;4.35;;
18302;SDS011;9277;37.980;23.748;2023-06-26T04:59:08;10.13;;;3.75;;
18302;SDS011;9277;37.980;23.748;2023-06-26T05:01:38;8.70;;;3.88;;
18302;SDS011;9277;37.980;23.748;2023-06-26T05:04:05;8.18;;;4.00;;
18302;SDS011;9277;37.980;23.748;2023-06-26T05:06:32;9.57;;;3.70;;
18302;SDS011;9277;37.980;23.748;2023-06-26T05:08:58;7.70;;;3.50;;
18302;SDS011;9277;37.980;23.748;2023-06-26T05:11:26;9.48;;;3.90;;
18302;SDS011;9277;37.980;23.748;2023-06-26T05:13:53;7.80;;;3.40;;
18302;SDS011;9277;37.980;23.748;2023-06-26T05:16:20;10.20;;;4.03;;
18302;SDS011;9277;37.980;23.748;2023-06-26T05:18:46;10.43;;;3.63;;
18302;SDS011;9277;37.980;23.748;2023-06-26T05:21:13;6.30;;;3.50;;
18302;SDS011;9277;37.980;23.748;2023-06-26T05:23:42;11.25;;;3.85;;
18302;SDS011;9277;37.980;23.748;2023-06-26T05:26:09;10.80;;;3.72;;
18302;SDS011;9277;37.980;23.748;2023-06-26T05:28:40;5.22;;;3.67;;
18302;SDS011;9277;37.980;23.748;2023-06-26T05:31:07;10.90;;;3.45;;
18302;SDS011;9277;37.980;23.748;2023-06-26T05:33:34;6.20;;;3.42;;
18302;SDS011;9277;37.980;23.748;2023-06-26T05:36:02;6.18;;;3.00;;
18302;SDS011;9277;37.980;23.748;2023-06-26T05:38:30;6.95;;;3.63;;
18302;SDS011;9277;37.980;23.748;2023-06-26T05:40:57;13.32;;;3.70;;
18302;SDS011;9277;37.980;23.748;2023-06-26T05:43:24;13.75;;;3.47;;
18302;SDS011;9277;37.980;23.748;2023-06-26T05:45:52;7.68;;;4.10;;
18302;SDS011;9277;37.980;23.748;2023-06-26T05:48:19;9.55;;;3.88;;
18302;SDS011;9277;37.980;23.748;2023-06-26T05:50:46;8.43;;;3.55;;
18302;SDS011;9277;37.980;23.748;2023-06-26T05:53:13;6.55;;;3.25;;
18302;SDS011;9277;37.980;23.748;2023-06-26T05:55:40;11.48;;;2.97;;
18302;SDS011;9277;37.980;23.748;2023-06-26T05:58:07;7.15;;;3.15;;
18302;SDS011;9277;37.980;23.748;2023-06-26T06:00:36;8.82;;;3.95;;
18302;SDS011;9277;37.980;23.748;2023-06-26T06:03:04;8.75;;;3.72;;
18302;SDS011;9277;37.980;23.748;2023-06-26T06:05:31;11.55;;;3.17;;
18302;SDS011;9277;37.980;23.748;2023-06-26T06:07:58;9.30;;;3.03;;
18302;SDS011;9277;37.980;23.748;2023-06-26T06:10:25;5.30;;;2.90;;
18302;SDS011;9277;37.980;23.748;2023-06-26T06:12:52;4.53;;;2.58;;
18302;SDS011;9277;37.980;23.748;2023-06-26T06:15:19;6.63;;;2.60;;
18302;SDS011;9277;37.980;23.748;2023-06-26T06:17:46;5.97;;;2.88;;
18302;SDS011;9277;37.980;23.748;2023-06-26T06:20:14;4.93;;;2.80;;
18302;SDS011;9277;37.980;23.748;2023-06-26T06:22:41;9.05;;;3.15;;
18302;SDS011;9277;37.980;23.748;2023-06-26T06:25:08;7.38;;;3.55;;
18302;SDS011;9277;37.980;23.748;2023-06-26T06:27:35;4.35;;;2.55;;
18302;SDS011;9277;37.980;23.748;2023-06-26T06:30:02;5.30;;;2.88;;
18302;SDS011;9277;37.980;23.748;2023-06-26T06:32:29;5.03;;;2.72;;
18302;SDS011;9277;37.980;23.748;2023-06-26T06:34:56;6.00;;;2.90;;
18302;SDS011;9277;37.980;23.748;2023-06-26T06:37:24;6.18;;;2.90;;
18302;SDS011;9277;37.980;23.748;2023-06-26T06:39:51;9.15;;;3.30;;
18302;SDS011;9277;37.980;23.748;2023-06-26T06:42:18;7.40;;;3.10;;
18302;SDS011;9277;37.980;23.748;2023-06-26T06:44:45;10.07;;;3.28;;
18302;SDS011;9277;37.980;23.748;2023-06-26T06:47:12;10.25;;;3.30;;
18302;SDS011;9277;37.980;23.748;2023-06-26T06:49:39;6.10;;;3.45;;
18302;SDS011;9277;37.980;23.748;2023-06-26T06:52:06;7.88;;;2.92;;
18302;SDS011;9277;37.980;23.748;2023-06-26T06:54:34;6.22;;;3.38;;
18302;SDS011;9277;37.980;23.748;2023-06-26T06:57:17;5.78;;;3.00;;
18302;SDS011;9277;37.980;23.748;2023-06-26T06:59:44;6.43;;;3.00;;
18302;SDS011;9277;37.980;23.748;2023-06-26T07:02:10;9.10;;;3.53;;
18302;SDS011;9277;37.980;23.748;2023-06-26T07:04:37;4.75;;;3.22;;
18302;SDS011;9277;37.980;23.748;2023-06-26T07:07:04;8.20;;;3.30;;
18302;SDS011;9277;37.980;23.748;2023-06-26T07:09:31;5.28;;;3.42;;
18302;SDS011;9277;37.980;23.748;2023-06-26T07:11:59;5.18;;;2.92;;
18302;SDS011;9277;37.980;23.748;2023-06-26T07:14:26;7.90;;;3.72;;
18302;SDS011;9277;37.980;23.748;2023-06-26T07:16:53;6.60;;;3.40;;
18302;SDS011;9277;37.980;23.748;2023-06-26T07:19:19;8.93;;;3.58;;
18302;SDS011;9277;37.980;23.748;2023-06-26T07:21:46;8.55;;;3.53;;
18302;SDS011;9277;37.980;23.748;2023-06-26T07:24:13;5.80;;;3.38;;
18302;SDS011;9277;37.980;23.748;2023-06-26T07:26:40;8.25;;;3.33;;
18302;SDS011;9277;37.980;23.748;2023-06-26T07:29:08;6.38;;;3.55;;
18302;SDS011;9277;37.980;23.748;2023-06-26T07:31:35;6.18;;;3.47;;
18302;SDS011;9277;37.980;23.748;2023-06-26T07:34:02;11.98;;;3.95;;
18302;SDS011;9277;37.980;23.748;2023-06-26T07:36:28;7.40;;;2.80;;
18302;SDS011;9277;37.980;23.748;2023-06-26T07:38:55;5.30;;;2.70;;
18302;SDS011;9277;37.980;23.748;2023-06-26T07:41:25;9.73;;;3.55;;
18302;SDS011;9277;37.980;23.748;2023-06-26T07:43:54;7.85;;;3.20;;
18302;SDS011;9277;37.980;23.748;2023-06-26T07:46:22;4.32;;;3.33;;
18302;SDS011;9277;37.980;23.748;2023-06-26T07:48:49;9.93;;;3.33;;
18302;SDS011;9277;37.980;23.748;2023-06-26T07:51:16;6.68;;;3.47;;
18302;SDS011;9277;37.980;23.748;2023-06-26T07:53:43;8.40;;;3.45;;
18302;SDS011;9277;37.980;23.748;2023-06-26T07:56:10;6.40;;;3.30;;
18302;SDS011;9277;37.980;23.748;2023-06-26T07:58:36;5.95;;;3.13;;
18302;SDS011;9277;37.980;23.748;2023-06-26T08:01:03;5.60;;;3.38;;
18302;SDS011;9277;37.980;23.748;2023-06-26T08:03:31;8.05;;;3.17;;
18302;SDS011;9277;37.980;23.748;2023-06-26T08:05:58;6.18;;;3.10;;
18302;SDS011;9277;37.980;23.748;2023-06-26T08:08:25;7.75;;;3.03;;
18302;SDS011;9277;37.980;23.748;2023-06-26T08:10:52;8.80;;;3.17;;
18302;SDS011;9277;37.980;23.748;2023-06-26T08:13:18;7.38;;;3.30;;
18302;SDS011;9277;37.980;23.748;2023-06-26T08:15:45;5.57;;;3.05;;
18302;SDS011;9277;37.980;23.748;2023-06-26T08:18:12;5.63;;;3.08;;
18302;SDS011;9277;37.980;23.748;2023-06-26T08:20:40;7.03;;;3.25;;
18302;SDS011;9277;37.980;23.748;2023-06-26T08:23:07;10.60;;;3.33;;
18302;SDS011;9277;37.980;23.748;2023-06-26T08:25:34;7.25;;;3.15;;
18302;SDS011;9277;37.980;23.748;2023-06-26T08:28:00;6.32;;;3.25;;
18302;SDS011;9277;37.980;23.748;2023-06-26T08:30:28;5.35;;;3.08;;
18302;SDS011;9277;37.980;23.748;2023-06-26T08:32:57;6.13;;;3.78;;
18302;SDS011;9277;37.980;23.748;2023-06-26T08:35:24;6.90;;;2.97;;
18302;SDS011;9277;37.980;23.748;2023-06-26T08:37:52;8.82;;;3.85;;
18302;SDS011;9277;37.980;23.748;2023-06-26T08:40:20;5.15;;;3.50;;
18302;SDS011;9277;37.980;23.748;2023-06-26T08:42:47;8.88;;;3.38;;
18302;SDS011;9277;37.980;23.748;2023-06-26T08:45:18;5.45;;;3.28;;
18302;SDS011;9277;37.980;23.748;2023-06-26T08:47:44;5.60;;;3.20;;
18302;SDS011;9277;37.980;23.748;2023-06-26T08:50:12;5.18;;;3.00;;
18302;SDS011;9277;37.980;23.748;2023-06-26T08:52:40;5.63;;;3.33;;
18302;SDS011;9277;37.980;23.748;2023-06-26T08:55:10;8.32;;;3.67;;
18302;SDS011;9277;37.980;23.748;2023-06-26T08:57:39;5.38;;;3.40;;
18302;SDS011;9277;37.980;23.748;2023-06-26T09:00:06;5.97;;;3.40;;
18302;SDS011;9277;37.980;23.748;2023-06-26T09:02:33;6.57;;;3.28;;
18302;SDS011;9277;37.980;23.748;2023-06-26T09:05:01;6.40;;;3.78;;
18302;SDS011;9277;37.980;23.748;2023-06-26T09:07:28;6.07;;;3.40;;
18302;SDS011;9277;37.980;23.748;2023-06-26T09:09:56;5.25;;;3.88;;
18302;SDS011;9277;37.980;23.748;2023-06-26T09:12:24;9.27;;;3.72;;
18302;SDS011;9277;37.980;23.748;2023-06-26T09:14:52;5.97;;;3.90;;
18302;SDS011;9277;37.980;23.748;2023-06-26T09:17:22;5.63;;;3.35;;
18302;SDS011;9277;37.980;23.748;2023-06-26T09:19:50;3.45;;;3.10;;
18302;SDS011;9277;37.980;23.748;2023-06-26T09:22:17;7.18;;;3.65;;
18302;SDS011;9277;37.980;23.748;2023-06-26T09:24:44;9.95;;;3.60;;
18302;SDS011;9277;37.980;23.748;2023-06-26T09:27:11;6.57;;;3.95;;
18302;SDS011;9277;37.980;23.748;2023-06-26T09:29:39;5.70;;;3.70;;
18302;SDS011;9277;37.980;23.748;2023-06-26T09:32:07;4.63;;;3.38;;
18302;SDS011;9277;37.980;23.748;2023-06-26T09:34:34;5.22;;;3.50;;
18302;SDS011;9277;37.980;23.748;2023-06-26T09:37:12;7.97;;;3.15;;
18302;SDS011;9277;37.980;23.748;2023-06-26T09:39:39;10.90;;;4.20;;
18302;SDS011;9277;37.980;23.748;2023-06-26T09:42:09;6.80;;;3.30;;
18302;SDS011;9277;37.980;23.748;2023-06-26T09:44:36;6.45;;;4.10;;
18302;SDS011;9277;37.980;23.748;2023-06-26T09:47:04;5.85;;;3.40;;
18302;SDS011;9277;37.980;23.748;2023-06-26T09:49:31;4.75;;;3.38;;
18302;SDS011;9277;37.980;23.748;2023-06-26T09:51:59;7.72;;;3.33;;
18302;SDS011;9277;37.980;23.748;2023-06-26T09:54:26;5.53;;;3.60;;
18302;SDS011;9277;37.980;23.748;2023-06-26T09:56:55;7.25;;;4.03;;
18302;SDS011;9277;37.980;23.748;2023-06-26T09:59:22;8.27;;;3.97;;
18302;SDS011;9277;37.980;23.748;2023-06-26T10:01:50;5.28;;;3.65;;
18302;SDS011;9277;37.980;23.748;2023-06-26T10:04:26;8.98;;;3.85;;
18302;SDS011;9277;37.980;23.748;2023-06-26T10:06:54;10.13;;;4.63;;
18302;SDS011;9277;37.980;23.748;2023-06-26T10:09:22;10.38;;;4.53;;
18302;SDS011;9277;37.980;23.748;2023-06-26T10:11:49;6.65;;;3.70;;
18302;SDS011;9277;37.980;23.748;2023-06-26T10:14:17;7.47;;;3.85;;
18302;SDS011;9277;37.980;23.748;2023-06-26T10:16:46;6.20;;;3.95;;
18302;SDS011;9277;37.980;23.748;2023-06-26T10:19:14;6.40;;;3.75;;
18302;SDS011;9277;37.980;23.748;2023-06-26T10:21:45;8.82;;;4.55;;
18302;SDS011;9277;37.980;23.748;2023-06-26T10:24:12;7.13;;;4.57;;
18302;SDS011;9277;37.980;23.748;2023-06-26T10:26:40;8.45;;;3.60;;
18302;SDS011;9277;37.980;23.748;2023-06-26T10:29:08;7.40;;;3.88;;
18302;SDS011;9277;37.980;23.748;2023-06-26T10:31:36;12.02;;;4.72;;
18302;SDS011;9277;37.980;23.748;2023-06-26T10:34:03;8.70;;;4.50;;
18302;SDS011;9277;37.980;23.748;2023-06-26T10:36:30;11.82;;;4.60;;
18302;SDS011;9277;37.980;23.748;2023-06-26T10:39:02;6.70;;;3.95;;
18302;SDS011;9277;37.980;23.748;2023-06-26T10:41:30;12.20;;;4.75;;
18302;SDS011;9277;37.980;23.748;2023-06-26T10:44:09;8.43;;;4.53;;
18302;SDS011;9277;37.980;23.748;2023-06-26T10:46:48;8.45;;;4.25;;
18302;SDS011;9277;37.980;23.748;2023-06-26T10:49:15;7.85;;;4.03;;
18302;SDS011;9277;37.980;23.748;2023-06-26T10:51:48;12.45;;;4.45;;
18302;SDS011;9277;37.980;23.748;2023-06-26T10:54:17;7.53;;;3.50;;
18302;SDS011;9277;37.980;23.748;2023-06-26T10:56:45;9.07;;;4.22;;
18302;SDS011;9277;37.980;23.748;2023-06-26T10:59:16;12.40;;;4.35;;
18302;SDS011;9277;37.980;23.748;2023-06-26T11:01:43;15.63;;;4.15;;
18302;SDS011;9277;37.980;23.748;2023-06-26T11:04:11;13.35;;;4.25;;
18302;SDS011;9277;37.980;23.748;2023-06-26T11:06:39;10.32;;;4.22;;
18302;SDS011;9277;37.980;23.748;2023-06-26T11:09:10;7.20;;;4.10;;
18302;SDS011;9277;37.980;23.748;2023-06-26T11:11:56;6.07;;;4.22;;
18302;SDS011;9277;37.980;23.748;2023-06-26T11:14:32;10.18;;;5.00;;
18302;SDS011;9277;37.980;23.748;2023-06-26T11:16:59;14.38;;;4.60;;
18302;SDS011;9277;37.980;23.748;2023-06-26T11:19:28;14.13;;;5.03;;
18302;SDS011;9277;37.980;23.748;2023-06-26T11:21:57;9.20;;;5.47;;
18302;SDS011;9277;37.980;23.748;2023-06-26T11:24:25;14.27;;;5.80;;
18302;SDS011;9277;37.980;23.748;2023-06-26T11:26:51;10.32;;;5.05;;
18302;SDS011;9277;37.980;23.748;2023-06-26T11:29:20;16.70;;;5.95;;
18302;SDS011;9277;37.980;23.748;2023-06-26T11:31:48;10.02;;;5.50;;
18302;SDS011;9277;37.980;23.748;2023-06-26T11:34:25;8.15;;;4.65;;
18302;SDS011;9277;37.980;23.748;2023-06-26T11:36:56;7.60;;;4.72;;
18302;SDS011;9277;37.980;23.748;2023-06-26T11:39:23;8.32;;;4.53;;
18302;SDS011;9277;37.980;23.748;2023-06-26T11:41:50;6.28;;;4.05;;
18302;SDS011;9277;37.980;23.748;2023-06-26T11:44:17;9.52;;;4.65;;
18302;SDS011;9277;37.980;23.748;2023-06-26T11:46:46;13.35;;;4.88;;
18302;SDS011;9277;37.980;23.748;2023-06-26T11:49:15;9.52;;;4.45;;
18302;SDS011;9277;37.980;23.748;2023-06-26T11:51:42;14.70;;;5.20;;
18302;SDS011;9277;37.980;23.748;2023-06-26T11:54:09;9.15;;;4.65;;
18302;SDS011;9277;37.980;23.748;2023-06-26T11:56:37;11.43;;;4.40;;
18302;SDS011;9277;37.980;23.748;2023-06-26T11:59:05;9.35;;;4.30;;
18302;SDS011;9277;37.980;23.748;2023-06-26T12:01:32;7.80;;;4.05;;
18302;SDS011;9277;37.980;23.748;2023-06-26T12:04:11;7.75;;;4.40;;
18302;SDS011;9277;37.980;23.748;2023-06-26T12:06:39;8.15;;;3.95;;
18302;SDS011;9277;37.980;23.748;2023-06-26T12:09:07;9.38;;;4.20;;
18302;SDS011;9277;37.980;23.748;2023-06-26T12:11:37;10.25;;;4.55;;
18302;SDS011;9277;37.980;23.748;2023-06-26T12:14:06;6.13;;;4.47;;
18302;SDS011;9277;37.980;23.748;2023-06-26T12:16:35;8.40;;;4.45;;
18302;SDS011;9277;37.980;23.748;2023-06-26T12:19:03;8.13;;;5.18;;
18302;SDS011;9277;37.980;23.748;2023-06-26T12:21:50;9.65;;;3.97;;
18302;SDS011;9277;37.980;23.748;2023-06-26T12:24:22;7.85;;;5.22;;
18302;SDS011;9277;37.980;23.748;2023-06-26T12:26:50;11.05;;;5.25;;
18302;SDS011;9277;37.980;23.748;2023-06-26T12:29:19;11.43;;;4.45;;
18302;SDS011;9277;37.980;23.748;2023-06-26T12:31:48;7.50;;;5.05;;
18302;SDS011;9277;37.980;23.748;2023-06-26T12:34:17;6.85;;;4.72;;
18302;SDS011;9277;37.980;23.748;2023-06-26T12:36:44;9.35;;;4.60;;
18302;SDS011;9277;37.980;23.748;2023-06-26T12:39:14;7.85;;;4.70;;
18302;SDS011;9277;37.980;23.748;2023-06-26T12:41:44;5.93;;;4.45;;
18302;SDS011;9277;37.980;23.748;2023-06-26T12:44:16;8.88;;;4.65;;
18302;SDS011;9277;37.980;23.748;2023-06-26T12:46:42;9.93;;;4.45;;
18302;SDS011;9277;37.980;23.748;2023-06-26T12:49:12;8.27;;;4.82;;
18302;SDS011;9277;37.980;23.748;2023-06-26T12:51:38;6.88;;;5.10;;
18302;SDS011;9277;37.980;23.748;2023-06-26T12:54:06;8.50;;;4.60;;
18302;SDS011;9277;37.980;23.748;2023-06-26T12:56:34;10.43;;;4.97;;
18302;SDS011;9277;37.980;23.748;2023-06-26T12:59:01;7.22;;;4.80;;
18302;SDS011;9277;37.980;23.748;2023-06-26T13:01:28;10.55;;;5.07;;
18302;SDS011;9277;37.980;23.748;2023-06-26T13:03:54;8.95;;;4.72;;
18302;SDS011;9277;37.980;23.748;2023-06-26T13:06:21;7.07;;;4.85;;
18302;SDS011;9277;37.980;23.748;2023-06-26T13:08:48;10.13;;;4.57;;
18302;SDS011;9277;37.980;23.748;2023-06-26T13:11:15;5.75;;;4.00;;
18302;SDS011;9277;37.980;23.748;2023-06-26T13:13:44;8.18;;;4.70;;
18302;SDS011;9277;37.980;23.748;2023-06-26T13:16:11;9.10;;;4.10;;
18302;SDS011;9277;37.980;23.748;2023-06-26T13:18:37;9.82;;;5.05;;
18302;SDS011;9277;37.980;23.748;2023-06-26T13:21:04;9.07;;;4.63;;
18302;SDS011;9277;37.980;23.748;2023-06-26T13:23:31;8.38;;;4.25;;
18302;SDS011;9277;37.980;23.748;2023-06-26T13:25:58;8.75;;;4.65;;
18302;SDS011;9277;37.980;23.748;2023-06-26T13:28:25;6.45;;;4.50;;
18302;SDS011;9277;37.980;23.748;2023-06-26T13:31:00;8.63;;;4.57;;
18302;SDS011;9277;37.980;23.748;2023-06-26T13:33:27;7.18;;;5.05;;
18302;SDS011;9277;37.980;23.748;2023-06-26T13:35:54;10.75;;;4.85;;
18302;SDS011;9277;37.980;23.748;2023-06-26T13:38:21;7.20;;;4.22;;
18302;SDS011;9277;37.980;23.748;2023-06-26T13:40:50;9.68;;;5.15;;
18302;SDS011;9277;37.980;23.748;2023-06-26T13:43:17;10.23;;;5.22;;
18302;SDS011;9277;37.980;23.748;2023-06-26T13:45:44;5.35;;;3.95;;
18302;SDS011;9277;37.980;23.748;2023-06-26T13:48:12;6.80;;;4.80;;
18302;SDS011;9277;37.980;23.748;2023-06-26T13:50:39;12.57;;;5.13;;
18302;SDS011;9277;37.980;23.748;2023-06-26T13:53:06;7.80;;;5.22;;
18302;SDS011;9277;37.980;23.748;2023-06-26T13:55:33;9.45;;;4.80;;
18302;SDS011;9277;37.980;23.748;2023-06-26T13:58:03;8.70;;;5.40;;
18302;SDS011;9277;37.980;23.748;2023-06-26T14:00:30;11.35;;;4.93;;
18302;SDS011;9277;37.980;23.748;2023-06-26T14:02:58;8.18;;;4.75;;
18302;SDS011;9277;37.980;23.748;2023-06-26T14:05:26;7.20;;;4.60;;
18302;SDS011;9277;37.980;23.748;2023-06-26T14:07:53;8.65;;;4.65;;
18302;SDS011;9277;37.980;23.748;2023-06-26T14:10:20;6.97;;;4.70;;
18302;SDS011;9277;37.980;23.748;2023-06-26T14:12:47;6.68;;;4.40;;
18302;SDS011;9277;37.980;23.748;2023-06-26T14:15:14;9.18;;;5.18;;
18302;SDS011;9277;37.980;23.748;2023-06-26T14:17:41;8.27;;;5.03;;
18302;SDS011;9277;37.980;23.748;2023-06-26T14:20:08;10.20;;;5.20;;
18302;SDS011;9277;37.980;23.748;2023-06-26T14:22:39;6.93;;;4.70;;
18302;SDS011;9277;37.980;23.748;2023-06-26T14:25:07;7.25;;;4.88;;
18302;SDS011;9277;37.980;23.748;2023-06-26T14:27:34;9.05;;;5.00;;
18302;SDS011;9277;37.980;23.748;2023-06-26T14:30:01;6.78;;;4.85;;
18302;SDS011;9277;37.980;23.748;2023-06-26T14:32:28;6.38;;;4.25;;
18302;SDS011;9277;37.980;23.748;2023-06-26T14:34:56;7.18;;;4.75;;
18302;SDS011;9277;37.980;23.748;2023-06-26T14:37:23;8.35;;;5.03;;
18302;SDS011;9277;37.980;23.748;2023-06-26T14:39:51;8.38;;;4.78;;
18302;SDS011;9277;37.980;23.748;2023-06-26T14:42:18;10.10;;;5.32;;
18302;SDS011;9277;37.980;23.748;2023-06-26T14:44:45;8.00;;;5.20;;
18302;SDS011;9277;37.980;23.748;2023-06-26T14:47:15;9.02;;;4.63;;